Time;durP1;ratioP1;P1;durP2;ratioP2;P2;SDS_P1;SDS_P2;PMS_P1;PMS_P2;Temp;Humidity;BMP_temperature;BMP_pressure;BME280_temperature;BME280_humidity;BME280_pressure;Samples;Min_cycle;Max_cycle;Signal;HPM_P1;HPM_P2
2021/11/19 00:00:44;;;;;;;2.75;2.33;;;11.90;99.90;;;;;;5020543;28;20057;-53
2021/11/19 00:03:11;;;;;;;2.80;2.33;;;11.80;99.90;;;;;;5021746;28;20049;-55
2021/11/19 00:05:40;;;;;;;3.38;2.95;;;11.80;99.90;;;;;;5022196;28;20445;-51
2021/11/19 00:08:07;;;;;;;4.00;3.00;;;11.70;99.90;;;;;;5022572;28;20057;-52
2021/11/19 00:10:34;;;;;;;3.53;2.92;;;11.70;99.90;;;;;;5021865;28;20489;-54
2021/11/19 00:13:01;;;;;;;3.88;3.35;;;11.70;99.90;;;;;;5018815;28;20081;-52
2021/11/19 00:15:28;;;;;;;3.45;3.15;;;11.70;99.90;;;;;;5016005;28;20073;-52
2021/11/19 00:17:55;;;;;;;3.85;3.45;;;11.70;99.90;;;;;;5023145;28;20161;-55
2021/11/19 00:20:28;;;;;;;4.57;3.78;;;11.70;99.90;;;;;;5023251;28;20528;-52
2021/11/19 00:22:56;;;;;;;4.25;3.47;;;11.70;99.90;;;;;;5017524;28;20133;-52
2021/11/19 00:25:23;;;;;;;4.15;3.55;;;11.70;99.90;;;;;;5020087;28;20145;-54
2021/11/19 00:27:50;;;;;;;4.68;3.55;;;11.80;99.90;;;;;;5019117;28;20093;-51
2021/11/19 00:30:18;;;;;;;4.22;3.17;;;11.80;99.90;;;;;;5020196;28;20141;-50
2021/11/19 00:32:45;;;;;;;3.70;3.13;;;11.80;99.90;;;;;;5020251;28;20140;-52
2021/11/19 00:35:12;;;;;;;4.03;3.35;;;11.80;99.90;;;;;;5021045;28;20160;-53
2021/11/19 00:37:39;;;;;;;3.22;2.70;;;11.80;99.90;;;;;;5020044;28;20132;-54
2021/11/19 00:40:09;;;;;;;4.75;3.40;;;11.80;99.90;;;;;;5021475;28;20124;-53
2021/11/19 00:42:36;;;;;;;4.57;3.22;;;11.80;99.90;;;;;;5020478;28;20049;-52
2021/11/19 00:45:03;;;;;;;3.53;3.17;;;11.80;99.90;;;;;;5021123;28;20129;-53
2021/11/19 00:47:30;;;;;;;3.33;2.80;;;11.80;99.90;;;;;;5022205;28;20103;-53
2021/11/19 00:49:59;;;;;;;3.72;3.28;;;11.80;99.90;;;;;;5020511;28;20080;-54
2021/11/19 00:52:27;;;;;;;3.50;3.10;;;11.80;99.90;;;;;;5021488;28;20087;-51
2021/11/19 00:54:54;;;;;;;4.57;3.58;;;11.80;99.90;;;;;;5021237;28;20049;-53
2021/11/19 00:57:21;;;;;;;5.40;3.88;;;11.80;99.90;;;;;;5019077;28;20548;-51
2021/11/19 00:59:47;;;;;;;4.50;3.58;;;11.80;99.90;;;;;;5020523;28;20049;-55
2021/11/19 01:02:20;;;;;;;3.75;3.35;;;11.80;99.90;;;;;;5017789;28;20135;-54
2021/11/19 01:04:47;;;;;;;4.03;3.63;;;11.70;99.90;;;;;;5018119;28;20065;-55
2021/11/19 01:07:15;;;;;;;5.80;3.80;;;11.70;99.90;;;;;;5022643;28;20106;-56
2021/11/19 01:09:48;;;;;;;6.10;3.72;;;11.70;99.90;;;;;;5023416;28;20140;-56
2021/11/19 01:12:16;;;;;;;4.40;3.55;;;11.70;99.90;;;;;;5024969;28;20068;-53
2021/11/19 01:14:47;;;;;;;4.90;3.38;;;11.70;99.90;;;;;;5024121;28;20478;-54
2021/11/19 01:17:19;;;;;;;4.13;3.10;;;11.70;99.90;;;;;;5026354;28;20080;-55
2021/11/19 01:20:17;;;;;;;4.38;3.85;;;11.70;99.90;;;;;;5025445;28;20489;-55
2021/11/19 01:22:47;;;;;;;3.78;3.38;;;11.70;99.90;;;;;;5023617;28;20076;-54
2021/11/19 01:25:17;;;;;;;3.67;3.28;;;11.70;99.90;;;;;;5026208;28;20115;-55
2021/11/19 01:27:44;;;;;;;3.92;3.50;;;11.70;99.90;;;;;;5025031;28;20150;-54
2021/11/19 01:30:16;;;;;;;3.70;3.28;;;11.70;99.90;;;;;;5022764;28;20103;-55
2021/11/19 01:32:42;;;;;;;4.25;3.63;;;11.70;99.90;;;;;;5025306;28;20049;-54
2021/11/19 01:35:09;;;;;;;3.55;3.10;;;11.70;99.90;;;;;;5025173;28;20517;-54
2021/11/19 01:37:36;;;;;;;4.28;3.28;;;11.70;99.90;;;;;;5025009;28;20096;-53
2021/11/19 01:40:05;;;;;;;4.45;3.58;;;11.70;99.90;;;;;;5026002;28;20304;-54
2021/11/19 01:42:34;;;;;;;3.60;2.90;;;11.70;99.90;;;;;;5024317;28;20111;-53
2021/11/19 01:45:07;;;;;;;3.58;2.95;;;11.80;99.90;;;;;;5023595;28;20045;-52
2021/11/19 01:47:36;;;;;;;3.45;2.83;;;11.80;99.90;;;;;;5025321;28;20073;-52
2021/11/19 01:50:06;;;;;;;5.07;3.88;;;11.80;99.90;;;;;;5024676;28;20144;-52
2021/11/19 01:52:42;;;;;;;4.22;3.83;;;11.80;99.90;;;;;;5024083;28;20130;-52
2021/11/19 01:55:22;;;;;;;3.88;3.47;;;11.80;99.90;;;;;;5024779;28;20488;-52
2021/11/19 01:58:04;;;;;;;5.30;3.38;;;11.80;99.90;;;;;;5005029;28;20334;-54
2021/11/19 02:00:33;;;;;;;3.38;2.90;;;11.80;99.90;;;;;;5020733;28;20141;-53
2021/11/19 02:03:01;;;;;;;3.45;2.95;;;11.80;99.90;;;;;;5023466;28;20072;-54
2021/11/19 02:05:33;;;;;;;3.78;3.35;;;11.80;99.90;;;;;;5023346;28;20092;-55
2021/11/19 02:08:12;;;;;;;3.67;3.25;;;11.80;99.90;;;;;;5023613;28;20041;-53
2021/11/19 02:11:18;;;;;;;4.00;3.55;;;11.90;99.90;;;;;;5022689;28;21446;-52
2021/11/19 02:14:03;;;;;;;3.25;2.75;;;11.90;99.90;;;;;;5021418;28;20069;-48
2021/11/19 02:17:02;;;;;;;4.30;3.90;;;11.90;99.90;;;;;;5021623;28;20080;-51
2021/11/19 02:19:33;;;;;;;5.15;4.22;;;11.80;99.90;;;;;;5021148;28;20124;-52
2021/11/19 02:22:01;;;;;;;5.68;4.25;;;11.80;99.90;;;;;;5022378;28;20170;-52
2021/11/19 02:24:32;;;;;;;4.63;4.07;;;11.80;99.90;;;;;;5022300;28;20049;-52
2021/11/19 02:27:05;;;;;;;4.13;3.53;;;11.80;99.90;;;;;;5023112;28;20160;-49
2021/11/19 02:29:37;;;;;;;3.92;3.50;;;11.80;99.90;;;;;;5022475;28;20524;-52
2021/11/19 02:32:07;;;;;;;4.13;3.65;;;11.80;99.90;;;;;;5022648;28;20510;-51
2021/11/19 02:34:34;;;;;;;5.00;4.50;;;11.80;99.90;;;;;;5026675;28;20095;-52
2021/11/19 02:37:31;;;;;;;4.88;4.18;;;11.80;99.90;;;;;;5026893;28;20057;-52
2021/11/19 02:40:19;;;;;;;4.30;3.78;;;11.80;99.90;;;;;;5025156;28;20081;-53
2021/11/19 02:42:49;;;;;;;4.32;3.80;;;11.80;99.90;;;;;;5025147;28;20077;-52
2021/11/19 02:45:19;;;;;;;4.25;3.83;;;11.80;99.90;;;;;;5023296;28;20051;-55
2021/11/19 02:47:46;;;;;;;5.07;4.35;;;11.90;99.90;;;;;;5005281;28;20392;-54
2021/11/19 02:50:13;;;;;;;4.63;4.22;;;11.90;99.90;;;;;;5005457;28;20555;-53
2021/11/19 02:52:41;;;;;;;5.40;4.88;;;11.90;99.90;;;;;;5021406;28;20111;-53
2021/11/19 02:55:14;;;;;;;4.72;4.07;;;11.90;99.90;;;;;;5025273;28;20487;-54
2021/11/19 02:57:41;;;;;;;4.07;3.65;;;11.90;99.90;;;;;;5024261;28;20105;-53
2021/11/19 03:00:12;;;;;;;5.30;4.80;;;11.90;99.90;;;;;;5023741;28;20112;-52
2021/11/19 03:02:39;;;;;;;5.88;5.22;;;11.80;99.90;;;;;;5024466;28;20037;-52
2021/11/19 03:05:10;;;;;;;5.32;4.82;;;11.80;99.90;;;;;;5024948;28;20132;-53
2021/11/19 03:07:37;;;;;;;4.90;4.40;;;11.80;99.90;;;;;;5025020;28;20492;-53
2021/11/19 03:10:08;;;;;;;5.10;4.60;;;11.80;99.90;;;;;;5024268;28;20076;-51
2021/11/19 03:12:35;;;;;;;5.70;5.03;;;11.80;99.90;;;;;;5022423;28;20144;-54
2021/11/19 03:15:06;;;;;;;4.93;4.43;;;11.70;99.90;;;;;;5022378;28;20403;-51
2021/11/19 03:17:33;;;;;;;5.30;4.80;;;11.80;99.90;;;;;;5024791;28;20136;-53
2021/11/19 03:20:00;;;;;;;4.35;3.95;;;11.80;99.90;;;;;;5024261;28;20115;-53
2021/11/19 03:22:28;;;;;;;4.32;3.92;;;11.80;99.90;;;;;;5024063;28;20040;-51
2021/11/19 03:24:54;;;;;;;4.95;4.45;;;11.80;99.90;;;;;;5023927;28;20191;-53
2021/11/19 03:27:23;;;;;;;4.13;3.45;;;11.80;99.90;;;;;;5023832;28;20128;-55
2021/11/19 03:29:51;;;;;;;4.53;3.85;;;11.80;99.90;;;;;;5023307;28;20084;-53
2021/11/19 03:32:20;;;;;;;4.63;4.22;;;11.80;99.90;;;;;;5023997;28;20493;-53
2021/11/19 03:34:46;;;;;;;4.32;3.92;;;11.80;99.90;;;;;;5024708;28;20284;-54
2021/11/19 03:37:13;;;;;;;4.90;3.92;;;11.80;99.90;;;;;;5024574;28;20060;-54
2021/11/19 03:39:40;;;;;;;4.47;3.83;;;11.80;99.90;;;;;;5023739;28;20051;-54
2021/11/19 03:42:09;;;;;;;4.32;3.92;;;11.80;99.90;;;;;;5023716;28;20080;-54
2021/11/19 03:44:39;;;;;;;4.85;4.13;;;11.90;99.90;;;;;;5022781;28;20077;-52
2021/11/19 03:47:10;;;;;;;4.43;3.67;;;11.90;99.90;;;;;;5027323;28;20509;-55
2021/11/19 03:49:37;;;;;;;4.13;3.72;;;11.90;99.90;;;;;;5018976;28;20123;-52
2021/11/19 03:52:12;;;;;;;4.20;3.80;;;11.90;99.90;;;;;;5028125;28;20045;-53
2021/11/19 03:54:40;;;;;;;4.57;3.63;;;11.90;99.90;;;;;;5028063;28;20308;-54
2021/11/19 03:57:07;;;;;;;4.32;3.75;;;11.90;99.90;;;;;;5026273;28;20080;-51
2021/11/19 03:59:35;;;;;;;4.00;3.60;;;11.90;99.90;;;;;;5025839;28;20089;-54
2021/11/19 04:02:02;;;;;;;3.55;3.25;;;12.00;99.90;;;;;;5028164;28;20080;-52
2021/11/19 04:04:31;;;;;;;4.30;3.90;;;12.00;99.90;;;;;;5027788;28;20050;-50
2021/11/19 04:07:00;;;;;;;3.80;3.40;;;12.00;99.90;;;;;;5027425;28;20103;-52
2021/11/19 04:09:27;;;;;;;3.95;3.47;;;12.00;99.90;;;;;;5027650;28;20049;-54
2021/11/19 04:11:54;;;;;;;3.95;3.55;;;12.00;99.90;;;;;;5027067;28;20472;-53
2021/11/19 04:14:22;;;;;;;3.65;3.20;;;12.00;99.90;;;;;;5026324;28;20347;-54
2021/11/19 04:16:50;;;;;;;3.50;3.20;;;12.00;99.90;;;;;;5027819;28;20398;-51
2021/11/19 04:19:18;;;;;;;3.40;3.10;;;12.00;99.90;;;;;;5027344;28;20085;-51
2021/11/19 04:21:45;;;;;;;3.10;2.80;;;12.00;99.90;;;;;;5027741;28;20404;-54
2021/11/19 04:24:13;;;;;;;3.17;2.88;;;12.10;99.90;;;;;;5027090;28;20080;-53
2021/11/19 04:26:45;;;;;;;3.72;3.05;;;12.10;99.90;;;;;;5026840;28;20132;-52
2021/11/19 04:29:12;;;;;;;3.25;2.42;;;12.10;99.90;;;;;;5025916;28;20144;-53
2021/11/19 04:31:40;;;;;;;3.75;3.20;;;12.10;99.90;;;;;;5027640;28;20073;-51
2021/11/19 04:34:07;;;;;;;3.28;2.97;;;12.20;99.90;;;;;;5027179;28;20091;-53
2021/11/19 04:36:35;;;;;;;2.47;2.25;;;12.20;99.90;;;;;;5027069;28;20540;-51
2021/11/19 04:39:03;;;;;;;3.35;2.95;;;12.10;99.90;;;;;;5027294;28;20136;-55
2021/11/19 04:41:30;;;;;;;4.25;3.50;;;12.10;99.90;;;;;;5026902;28;20079;-54
2021/11/19 04:43:57;;;;;;;4.00;3.10;;;12.10;99.90;;;;;;5026043;28;20130;-55
2021/11/19 04:46:24;;;;;;;3.78;3.38;;;12.10;99.90;;;;;;5026085;28;20084;-53
2021/11/19 04:48:51;;;;;;;3.40;3.10;;;12.00;99.90;;;;;;5027524;28;20377;-54
2021/11/19 04:51:21;;;;;;;3.85;3.33;;;12.10;99.90;;;;;;5027068;28;20424;-53
2021/11/19 04:53:47;;;;;;;4.35;2.95;;;12.10;99.90;;;;;;5027110;28;20161;-54
2021/11/19 04:56:14;;;;;;;3.30;2.92;;;12.10;99.90;;;;;;5026232;28;20131;-54
2021/11/19 04:58:41;;;;;;;3.17;2.78;;;12.10;99.90;;;;;;5026525;28;20081;-51
2021/11/19 05:01:15;;;;;;;3.33;2.75;;;12.10;99.90;;;;;;5025740;28;20123;-54
2021/11/19 05:03:42;;;;;;;3.60;3.17;;;12.10;99.90;;;;;;5027014;28;20053;-54
2021/11/19 05:06:09;;;;;;;3.03;2.70;;;12.20;99.90;;;;;;5026817;28;20053;-53
2021/11/19 05:08:36;;;;;;;2.83;2.45;;;12.10;99.90;;;;;;5026768;28;20116;-54
2021/11/19 05:11:03;;;;;;;4.30;3.47;;;12.20;99.90;;;;;;5026013;28;20080;-52
2021/11/19 05:13:31;;;;;;;4.07;3.40;;;12.20;99.90;;;;;;5026195;28;20072;-55
2021/11/19 05:15:59;;;;;;;3.88;3.53;;;12.10;99.90;;;;;;5025697;28;20504;-55
2021/11/19 05:18:26;;;;;;;3.70;3.30;;;12.10;99.90;;;;;;5026948;28;20141;-53
2021/11/19 05:20:54;;;;;;;3.33;2.90;;;12.10;99.90;;;;;;5026160;28;20144;-53
2021/11/19 05:23:22;;;;;;;3.30;2.90;;;12.10;99.90;;;;;;5027046;28;20099;-55
2021/11/19 05:25:49;;;;;;;3.58;3.22;;;12.10;99.90;;;;;;5025927;28;20076;-53
2021/11/19 05:28:17;;;;;;;3.88;3.25;;;12.10;99.90;;;;;;5025774;28;20050;-55
2021/11/19 05:30:43;;;;;;;3.40;2.92;;;12.10;99.90;;;;;;5025515;28;20906;-54
2021/11/19 05:33:12;;;;;;;3.72;3.28;;;12.10;99.90;;;;;;5026493;28;20089;-55
2021/11/19 05:35:39;;;;;;;3.70;3.15;;;12.10;99.90;;;;;;5026403;28;20141;-54
2021/11/19 05:38:06;;;;;;;3.10;2.70;;;12.10;99.90;;;;;;5026060;28;20095;-51
2021/11/19 05:40:33;;;;;;;3.58;3.10;;;12.20;99.90;;;;;;5025720;28;20148;-55
2021/11/19 05:42:59;;;;;;;3.58;3.28;;;12.10;99.90;;;;;;5025725;28;20126;-52
2021/11/19 05:45:27;;;;;;;3.20;2.80;;;12.10;99.90;;;;;;5024385;28;20247;-55
2021/11/19 05:47:54;;;;;;;3.45;3.15;;;12.10;99.90;;;;;;5024561;28;20072;-54
2021/11/19 05:50:22;;;;;;;3.28;2.67;;;12.10;99.90;;;;;;5003712;28;20514;-50
2021/11/19 05:52:49;;;;;;;3.28;2.70;;;12.10;99.90;;;;;;5003665;28;20497;-49
2021/11/19 05:55:17;;;;;;;3.78;3.40;;;12.10;99.90;;;;;;5006636;28;20148;-53
2021/11/19 05:57:44;;;;;;;3.20;2.90;;;12.10;99.90;;;;;;5023004;28;20587;-53
2021/11/19 06:00:16;;;;;;;3.63;3.33;;;12.10;99.90;;;;;;5021830;28;20418;-53
2021/11/19 06:02:43;;;;;;;4.32;3.38;;;12.10;99.90;;;;;;5019749;28;20101;-54
2021/11/19 06:05:11;;;;;;;3.35;2.90;;;12.10;99.90;;;;;;5002219;28;20057;-54
2021/11/19 06:07:38;;;;;;;3.88;3.47;;;12.10;99.90;;;;;;5018282;28;20073;-54
2021/11/19 06:10:05;;;;;;;3.30;3.00;;;12.10;99.90;;;;;;5018721;28;20439;-56
2021/11/19 06:12:36;;;;;;;3.50;3.08;;;12.10;99.90;;;;;;5017559;28;20393;-54
2021/11/19 06:15:09;;;;;;;3.80;2.88;;;12.10;99.90;;;;;;5015280;28;20486;-54
2021/11/19 06:17:39;;;;;;;4.22;3.60;;;12.10;99.90;;;;;;5000383;28;20144;-51
2021/11/19 06:20:26;;;;;;;3.78;3.22;;;12.10;99.90;;;;;;5013346;28;20087;-53
2021/11/19 06:22:58;;;;;;;3.80;3.40;;;12.10;99.90;;;;;;5013594;28;20092;-54
2021/11/19 06:25:26;;;;;;;4.45;3.58;;;12.10;99.90;;;;;;5013501;28;20395;-52
2021/11/19 06:27:54;;;;;;;3.75;3.35;;;12.20;99.90;;;;;;5015245;28;20107;-54
2021/11/19 06:30:21;;;;;;;3.90;3.50;;;12.10;99.90;;;;;;5015917;28;20519;-53
2021/11/19 06:32:48;;;;;;;3.50;3.20;;;12.20;99.90;;;;;;5016883;28;20144;-54
2021/11/19 06:35:15;;;;;;;4.47;3.80;;;12.20;99.90;;;;;;5016717;28;20049;-55
2021/11/19 06:37:42;;;;;;;4.40;4.00;;;12.20;99.90;;;;;;5015757;28;20060;-55
2021/11/19 06:40:11;;;;;;;3.53;3.22;;;12.20;99.90;;;;;;5016905;28;20439;-54
2021/11/19 06:42:38;;;;;;;3.67;3.17;;;12.20;99.90;;;;;;5016387;28;20096;-53
2021/11/19 06:45:06;;;;;;;3.30;2.83;;;12.20;99.90;;;;;;5015869;28;20511;-54
2021/11/19 06:47:33;;;;;;;3.40;3.00;;;12.20;99.90;;;;;;5016373;28;20270;-54
2021/11/19 06:49:59;;;;;;;3.75;3.33;;;12.20;99.90;;;;;;5017081;28;20158;-51
2021/11/19 06:52:26;;;;;;;3.75;3.05;;;12.20;99.90;;;;;;5018615;28;20491;-51
2021/11/19 06:54:53;;;;;;;3.65;3.28;;;12.20;99.90;;;;;;5018956;28;20061;-54
2021/11/19 06:57:19;;;;;;;3.95;3.40;;;12.20;99.90;;;;;;5016406;28;20616;-53
2021/11/19 06:59:46;;;;;;;3.70;3.35;;;12.20;99.90;;;;;;5014798;28;20152;-52
2021/11/19 07:02:13;;;;;;;3.13;2.83;;;12.20;99.90;;;;;;5013482;28;20092;-53
2021/11/19 07:04:40;;;;;;;3.20;2.85;;;12.20;99.90;;;;;;5012759;28;20556;-53
2021/11/19 07:07:08;;;;;;;3.30;2.83;;;12.20;99.90;;;;;;5016701;28;20050;-55
2021/11/19 07:09:37;;;;;;;4.22;3.38;;;12.20;99.90;;;;;;5016672;28;20088;-54
2021/11/19 07:12:06;;;;;;;2.92;2.58;;;12.20;99.90;;;;;;5015790;28;20045;-53
2021/11/19 07:14:33;;;;;;;2.70;2.40;;;12.20;99.90;;;;;;5015700;28;20106;-53
2021/11/19 07:17:04;;;;;;;3.97;2.88;;;12.20;99.90;;;;;;5015575;28;20054;-49
2021/11/19 07:19:32;;;;;;;3.40;2.42;;;12.30;99.90;;;;;;5017672;28;20104;-51
2021/11/19 07:21:59;;;;;;;2.92;2.42;;;12.30;99.90;;;;;;5021290;28;20060;-51
2021/11/19 07:24:26;;;;;;;3.95;3.08;;;12.30;99.90;;;;;;5020517;28;20045;-51
2021/11/19 07:26:53;;;;;;;3.53;2.85;;;12.30;99.90;;;;;;5019418;28;20084;-54
2021/11/19 07:29:20;;;;;;;2.85;2.50;;;12.30;99.90;;;;;;5020067;28;20153;-53
2021/11/19 07:31:46;;;;;;;4.10;3.10;;;12.20;99.90;;;;;;5021704;28;20092;-52
2021/11/19 07:34:14;;;;;;;3.55;2.85;;;12.20;99.90;;;;;;5021189;28;20133;-53
2021/11/19 07:36:41;;;;;;;2.78;2.30;;;12.30;99.90;;;;;;5021674;28;20602;-53
2021/11/19 07:39:08;;;;;;;3.33;3.03;;;12.30;99.90;;;;;;5019508;28;20204;-52
2021/11/19 07:41:35;;;;;;;2.95;2.40;;;12.30;99.90;;;;;;5021354;28;20107;-53
2021/11/19 07:44:02;;;;;;;2.58;2.22;;;12.30;99.90;;;;;;5020067;28;20137;-55
2021/11/19 07:46:29;;;;;;;9.27;2.88;;;12.30;99.90;;;;;;5018206;28;20061;-52
2021/11/19 07:48:56;;;;;;;2.83;2.40;;;12.30;99.90;;;;;;5020595;28;20049;-53
2021/11/19 07:51:26;;;;;;;2.55;2.30;;;12.30;99.90;;;;;;5021346;28;20136;-52
2021/11/19 07:53:53;;;;;;;3.00;2.13;;;12.30;99.90;;;;;;5019487;28;20088;-54
2021/11/19 07:56:31;;;;;;;2.53;2.33;;;12.30;99.90;;;;;;5019485;28;20122;-53
2021/11/19 07:59:00;;;;;;;2.25;2.03;;;12.30;99.90;;;;;;5018465;28;20141;-53
2021/11/19 08:01:27;;;;;;;3.35;2.25;;;12.30;99.90;;;;;;5017728;28;20457;-54
2021/11/19 08:03:54;;;;;;;2.63;2.42;;;12.30;99.90;;;;;;5019956;28;20041;-53
2021/11/19 08:06:24;;;;;;;3.22;2.58;;;12.30;99.90;;;;;;5020955;28;20068;-51
2021/11/19 08:08:50;;;;;;;2.50;2.28;;;12.30;99.90;;;;;;5018782;28;20543;-52
2021/11/19 08:11:17;;;;;;;2.45;2.20;;;12.30;99.90;;;;;;5018191;28;20052;-53
2021/11/19 08:13:44;;;;;;;3.25;2.35;;;12.40;99.90;;;;;;5018403;28;20148;-53
2021/11/19 08:16:12;;;;;;;2.10;1.90;;;12.40;99.90;;;;;;5008714;28;20095;-53
2021/11/19 08:18:48;;;;;;;2.10;1.90;;;12.40;99.90;;;;;;5005108;28;20045;-49
2021/11/19 08:21:15;;;;;;;3.03;2.72;;;12.40;99.90;;;;;;5019512;28;20057;-50
2021/11/19 08:23:49;;;;;;;3.08;2.78;;;12.40;99.90;;;;;;5020445;28;20404;-53
2021/11/19 08:26:26;;;;;;;2.55;2.30;;;12.40;99.90;;;;;;5019666;28;20041;-53
2021/11/19 08:28:53;;;;;;;3.20;2.55;;;12.40;99.90;;;;;;5017073;28;20081;-54
2021/11/19 08:31:21;;;;;;;2.55;2.25;;;12.40;99.90;;;;;;5018909;28;20144;-51
2021/11/19 08:33:50;;;;;;;2.75;2.22;;;12.40;99.90;;;;;;5018787;28;20238;-51
2021/11/19 08:36:19;;;;;;;2.45;2.22;;;12.40;99.90;;;;;;5020578;28;20053;-52
2021/11/19 08:38:46;;;;;;;2.15;1.92;;;12.50;99.90;;;;;;5019526;28;20523;-51
2021/11/19 08:41:13;;;;;;;2.15;1.80;;;12.50;99.90;;;;;;5016939;28;20548;-55
2021/11/19 08:43:45;;;;;;;3.83;2.25;;;12.50;99.90;;;;;;5018755;28;20224;-55
2021/11/19 08:46:24;;;;;;;2.60;2.00;;;12.50;99.90;;;;;;5018158;28;20137;-53
2021/11/19 08:48:51;;;;;;;2.38;2.00;;;12.60;99.90;;;;;;5019625;28;20437;-53
2021/11/19 08:51:23;;;;;;;2.58;2.35;;;12.60;99.90;;;;;;5020738;28;20381;-55
2021/11/19 08:53:54;;;;;;;2.38;2.00;;;12.60;99.90;;;;;;5020100;28;20129;-54
2021/11/19 08:56:31;;;;;;;2.58;2.17;;;12.60;99.90;;;;;;5019242;28;20069;-49
2021/11/19 08:58:59;;;;;;;2.13;1.92;;;12.70;99.90;;;;;;5016569;28;20053;-52
2021/11/19 09:01:25;;;;;;;2.95;2.22;;;12.70;99.90;;;;;;5016274;28;20060;-53
2021/11/19 09:03:52;;;;;;;2.67;1.90;;;12.70;99.90;;;;;;5017456;28;20080;-53
2021/11/19 09:06:19;;;;;;;2.47;2.03;;;12.80;99.90;;;;;;5017108;28;20115;-54
2021/11/19 09:08:46;;;;;;;2.78;2.10;;;12.80;99.90;;;;;;5014020;28;20479;-54
2021/11/19 09:11:16;;;;;;;2.58;2.25;;;12.70;99.90;;;;;;5016120;28;20496;-53
2021/11/19 09:13:43;;;;;;;2.17;1.85;;;12.80;99.90;;;;;;5015401;28;20147;-54
2021/11/19 09:16:11;;;;;;;2.42;1.98;;;12.80;99.90;;;;;;5017347;28;20072;-53
2021/11/19 09:19:05;;;;;;;2.28;1.63;;;12.80;99.90;;;;;;5016926;28;20049;-52
2021/11/19 09:21:50;;;;;;;1.85;1.55;;;12.70;99.90;;;;;;5016619;28;20072;-53
2021/11/19 09:24:23;;;;;;;1.67;1.48;;;12.70;99.90;;;;;;5016591;28;20057;-51
2021/11/19 09:26:55;;;;;;;1.95;1.50;;;12.70;99.90;;;;;;5017588;28;20537;-53
2021/11/19 09:29:33;;;;;;;2.60;1.92;;;12.80;99.90;;;;;;5016675;28;20136;-51
2021/11/19 09:32:00;;;;;;;2.00;1.77;;;12.80;99.90;;;;;;5016419;28;20133;-52
2021/11/19 09:34:28;;;;;;;1.55;1.40;;;12.80;99.90;;;;;;5016760;28;20055;-53
2021/11/19 09:36:56;;;;;;;2.08;1.85;;;12.80;99.90;;;;;;5016877;28;20073;-54
2021/11/19 09:39:26;;;;;;;1.90;1.63;;;12.80;99.90;;;;;;5017369;28;20568;-50
2021/11/19 09:42:01;;;;;;;2.35;1.52;;;12.80;99.90;;;;;;5017367;28;20081;-53
2021/11/19 09:44:40;;;;;;;1.92;1.60;;;12.80;99.90;;;;;;5015117;28;20398;-53
2021/11/19 09:47:25;;;;;;;3.10;2.17;;;12.80;99.90;;;;;;5017545;28;20459;-52
2021/11/19 09:50:15;;;;;;;2.20;2.00;;;12.70;99.90;;;;;;5015693;28;20160;-52
2021/11/19 09:52:59;;;;;;;1.55;1.27;;;12.70;99.90;;;;;;5006530;28;20662;-51
2021/11/19 09:56:05;;;;;;;1.80;1.45;;;12.80;99.90;;;;;;5016468;28;20126;-53
2021/11/19 09:58:50;;;;;;;1.45;1.35;;;12.80;99.90;;;;;;5015153;28;20457;-49
2021/11/19 10:01:42;;;;;;;4.20;1.95;;;12.80;99.90;;;;;;5015674;28;20129;-49
2021/11/19 10:04:28;;;;;;;1.52;1.33;;;12.70;99.90;;;;;;5017499;28;20197;-52
2021/11/19 10:06:57;;;;;;;1.88;1.30;;;12.70;99.70;;;;;;5017734;28;20077;-54
2021/11/19 10:09:47;;;;;;;1.98;1.23;;;12.70;99.80;;;;;;5018060;28;20490;-51
2021/11/19 10:12:43;;;;;;;1.38;1.13;;;12.80;99.70;;;;;;5014761;28;20176;-54
2021/11/19 10:15:19;;;;;;;1.60;1.25;;;12.80;99.60;;;;;;5010824;28;20433;-54
2021/11/19 10:17:51;;;;;;;1.70;1.38;;;12.80;99.80;;;;;;5017286;28;20049;-52
2021/11/19 10:20:42;;;;;;;1.40;1.13;;;12.80;99.60;;;;;;5015570;28;20580;-52
2021/11/19 10:23:17;;;;;;;1.88;1.40;;;12.80;99.50;;;;;;5016578;28;20049;-51
2021/11/19 10:26:04;;;;;;;1.67;1.25;;;12.80;99.80;;;;;;5015493;28;20049;-50
2021/11/19 10:28:37;;;;;;;1.42;1.27;;;12.80;99.90;;;;;;5015232;28;20275;-51
2021/11/19 10:31:04;;;;;;;1.95;1.35;;;12.80;99.90;;;;;;5013040;28;20449;-50
2021/11/19 10:33:58;;;;;;;1.90;1.17;;;12.80;99.80;;;;;;5016901;28;20184;-52
2021/11/19 10:36:43;;;;;;;1.65;1.10;;;12.80;99.90;;;;;;5012966;28;20076;-53
2021/11/19 10:39:13;;;;;;;1.42;1.30;;;12.90;99.90;;;;;;5014571;28;20503;-50
2021/11/19 10:41:48;;;;;;;1.58;1.40;;;12.80;99.50;;;;;;5012807;28;20081;-53
2021/11/19 10:44:35;;;;;;;2.35;1.35;;;12.80;99.50;;;;;;5014819;28;20069;-55
2021/11/19 10:47:17;;;;;;;2.65;1.10;;;12.80;99.70;;;;;;5017779;28;20199;-53
2021/11/19 10:50:12;;;;;;;1.53;1.17;;;12.80;99.80;;;;;;5017655;28;20121;-51
2021/11/19 10:53:20;;;;;;;1.65;1.15;;;12.90;99.80;;;;;;5013674;28;20576;-52
2021/11/19 10:56:09;;;;;;;1.48;1.00;;;13.00;99.70;;;;;;5007652;28;20543;-48
2021/11/19 10:58:53;;;;;;;1.50;1.40;;;13.00;99.70;;;;;;5019138;28;20140;-52
2021/11/19 11:01:45;;;;;;;1.95;1.50;;;13.10;99.60;;;;;;5018858;28;20171;-53
2021/11/19 11:04:19;;;;;;;1.90;1.42;;;13.00;99.50;;;;;;5019633;28;20122;-52
2021/11/19 11:06:54;;;;;;;1.88;1.40;;;12.90;99.30;;;;;;5020368;28;20046;-54
2021/11/19 11:09:34;;;;;;;2.35;1.70;;;12.90;99.30;;;;;;5016733;28;20152;-52
2021/11/19 11:12:11;;;;;;;2.17;1.52;;;12.90;99.50;;;;;;5017673;28;20140;-52
2021/11/19 11:14:40;;;;;;;2.40;1.90;;;12.90;99.50;;;;;;5018024;28;20128;-52
2021/11/19 11:17:22;;;;;;;2.35;1.70;;;12.80;99.70;;;;;;5021246;28;20290;-53
2021/11/19 11:19:50;;;;;;;2.92;1.95;;;12.80;99.70;;;;;;5020328;28;20148;-52
2021/11/19 11:22:20;;;;;;;1.95;1.65;;;12.90;99.70;;;;;;5020639;28;20077;-50
2021/11/19 11:24:54;;;;;;;2.55;2.08;;;12.90;99.60;;;;;;5021267;28;20136;-52
2021/11/19 11:27:45;;;;;;;2.03;1.73;;;12.80;99.80;;;;;;5020005;28;20543;-52
2021/11/19 11:30:14;;;;;;;3.90;2.13;;;12.80;99.90;;;;;;5019259;28;20052;-53
2021/11/19 11:33:20;;;;;;;2.28;1.90;;;12.90;99.90;;;;;;5020439;28;20578;-52
2021/11/19 11:36:10;;;;;;;3.92;2.00;;;13.00;99.90;;;;;;5020403;28;20136;-50
2021/11/19 11:38:49;;;;;;;2.30;1.80;;;13.10;99.70;;;;;;5020297;28;20839;-54
2021/11/19 11:41:30;;;;;;;2.88;2.10;;;13.00;99.20;;;;;;5018516;28;20111;-53
2021/11/19 11:44:03;;;;;;;2.70;2.10;;;13.00;99.10;;;;;;5019054;28;20130;-54
2021/11/19 11:46:55;;;;;;;2.22;1.90;;;13.10;99.00;;;;;;5016413;28;20065;-53
2021/11/19 11:49:31;;;;;;;2.15;1.92;;;13.10;99.20;;;;;;5020474;28;20159;-54
2021/11/19 11:52:21;;;;;;;2.70;2.20;;;13.10;99.30;;;;;;5018417;28;20125;-54
2021/11/19 11:55:19;;;;;;;2.67;2.08;;;13.10;99.30;;;;;;5018993;28;20080;-54
2021/11/19 11:57:48;;;;;;;2.47;2.05;;;13.10;98.90;;;;;;5014464;28;20150;-54
2021/11/19 12:00:43;;;;;;;2.28;1.95;;;13.10;99.00;;;;;;5018650;28;20168;-53
2021/11/19 12:03:13;;;;;;;2.90;1.98;;;13.00;99.10;;;;;;5003963;28;20049;-54
2021/11/19 12:06:00;;;;;;;2.17;1.85;;;13.00;99.00;;;;;;5019546;28;20084;-51
2021/11/19 12:08:38;;;;;;;2.45;2.10;;;12.80;99.10;;;;;;5019737;28;20132;-53
2021/11/19 12:11:33;;;;;;;3.63;2.15;;;12.90;99.30;;;;;;5014482;28;20226;-54
2021/11/19 12:14:07;;;;;;;2.67;2.22;;;12.90;99.30;;;;;;5016525;28;20519;-53
2021/11/19 12:16:59;;;;;;;2.22;1.90;;;12.80;99.20;;;;;;5008641;28;20072;-53
2021/11/19 12:19:43;;;;;;;2.70;1.90;;;12.80;99.40;;;;;;5019674;28;20128;-51
2021/11/19 12:22:30;;;;;;;2.67;2.00;;;12.90;99.30;;;;;;5014394;28;20458;-50
2021/11/19 12:25:12;;;;;;;2.72;1.92;;;13.00;99.10;;;;;;5019053;28;20129;-54
2021/11/19 12:27:48;;;;;;;2.55;1.88;;;12.90;99.20;;;;;;4997971;28;20589;-47
2021/11/19 12:30:52;;;;;;;2.03;1.63;;;13.00;99.30;;;;;;5023175;28;20137;-56
2021/11/19 12:33:28;;;;;;;2.15;1.40;;;13.10;98.90;;;;;;5012290;28;20551;-51
2021/11/19 12:35:55;;;;;;;2.58;1.85;;;13.10;99.00;;;;;;5016098;28;20088;-50
2021/11/19 12:38:30;;;;;;;2.63;1.80;;;12.90;99.00;;;;;;5012763;28;20137;-49
2021/11/19 12:41:04;;;;;;;1.90;1.60;;;12.90;99.20;;;;;;5014778;28;20128;-53
2021/11/19 12:43:31;;;;;;;2.60;1.70;;;12.90;99.20;;;;;;5026765;28;20076;-54
2021/11/19 12:46:03;;;;;;;2.22;1.73;;;13.00;99.10;;;;;;5015500;28;20061;-54
2021/11/19 12:49:18;;;;;;;1.60;1.30;;;13.00;98.90;;;;;;5021361;28;20083;-52
2021/11/19 12:51:51;;;;;;;2.22;1.60;;;13.00;98.70;;;;;;5023098;28;20475;-50
2021/11/19 12:54:30;;;;;;;1.63;1.30;;;13.10;98.60;;;;;;5021688;28;20447;-54
2021/11/19 12:57:23;;;;;;;2.53;1.75;;;13.00;98.80;;;;;;5023055;28;20531;-54
2021/11/19 12:59:58;;;;;;;1.88;1.25;;;12.90;99.10;;;;;;5020289;28;20045;-54
2021/11/19 13:02:48;;;;;;;1.80;1.40;;;12.90;99.20;;;;;;5023039;28;20049;-52
2021/11/19 13:05:24;;;;;;;1.90;1.50;;;12.80;99.40;;;;;;5022886;28;20148;-54
2021/11/19 13:07:57;;;;;;;2.08;1.75;;;12.90;99.40;;;;;;5021424;28;20049;-50
2021/11/19 13:10:24;;;;;;;2.38;1.55;;;12.90;99.40;;;;;;5022642;28;20151;-53
2021/11/19 13:13:23;;;;;;;2.05;1.60;;;12.90;99.50;;;;;;5021844;28;20136;-53
2021/11/19 13:15:51;;;;;;;2.10;1.70;;;12.90;99.30;;;;;;5021284;28;20049;-53